sensor_id;sensor_type;location;lat;lon;timestamp;temperature;humidity
81902;DHT22;71369;50.796;3.290;2023-08-31T00:01:01;13.80;92.30
81902;DHT22;71369;50.796;3.290;2023-08-31T00:03:27;13.80;92.30
81902;DHT22;71369;50.796;3.290;2023-08-31T00:05:57;13.80;92.30
81902;DHT22;71369;50.796;3.290;2023-08-31T00:08:23;13.70;92.60
81902;DHT22;71369;50.796;3.290;2023-08-31T00:10:59;13.70;92.80
81902;DHT22;71369;50.796;3.290;2023-08-31T00:13:28;13.80;92.90
81902;DHT22;71369;50.796;3.290;2023-08-31T00:15:57;13.80;92.90
81902;DHT22;71369;50.796;3.290;2023-08-31T00:18:26;13.80;93.10
81902;DHT22;71369;50.796;3.290;2023-08-31T00:20:52;13.70;93.30
81902;DHT22;71369;50.796;3.290;2023-08-31T00:23:20;13.80;93.50
81902;DHT22;71369;50.796;3.290;2023-08-31T00:25:48;13.80;93.50
81902;DHT22;71369;50.796;3.290;2023-08-31T00:28:15;13.90;93.40
81902;DHT22;71369;50.796;3.290;2023-08-31T00:30:43;13.90;93.20
81902;DHT22;71369;50.796;3.290;2023-08-31T00:33:11;14.00;93.00
81902;DHT22;71369;50.796;3.290;2023-08-31T00:35:36;14.00;93.00
81902;DHT22;71369;50.796;3.290;2023-08-31T00:38:02;14.00;93.00
81902;DHT22;71369;50.796;3.290;2023-08-31T00:40:30;14.00;93.00
81902;DHT22;71369;50.796;3.290;2023-08-31T00:42:57;14.10;92.90
81902;DHT22;71369;50.796;3.290;2023-08-31T00:45:23;14.00;92.90
81902;DHT22;71369;50.796;3.290;2023-08-31T00:47:49;13.90;92.90
81902;DHT22;71369;50.796;3.290;2023-08-31T00:50:15;13.90;93.20
81902;DHT22;71369;50.796;3.290;2023-08-31T00:52:42;14.00;93.10
81902;DHT22;71369;50.796;3.290;2023-08-31T00:55:10;14.00;93.00
81902;DHT22;71369;50.796;3.290;2023-08-31T00:57:36;14.00;92.90
81902;DHT22;71369;50.796;3.290;2023-08-31T01:00:02;14.00;93.00
81902;DHT22;71369;50.796;3.290;2023-08-31T01:02:47;14.00;93.10
81902;DHT22;71369;50.796;3.290;2023-08-31T01:06:09;14.10;93.10
81902;DHT22;71369;50.796;3.290;2023-08-31T01:08:31;14.10;92.90
81902;DHT22;71369;50.796;3.290;2023-08-31T01:14:02;14.20;92.80
81902;DHT22;71369;50.796;3.290;2023-08-31T01:16:32;14.10;92.70
81902;DHT22;71369;50.796;3.290;2023-08-31T01:19:02;14.20;92.60
81902;DHT22;71369;50.796;3.290;2023-08-31T01:21:39;14.10;92.40
81902;DHT22;71369;50.796;3.290;2023-08-31T01:24:06;14.10;92.90
81902;DHT22;71369;50.796;3.290;2023-08-31T01:26:32;14.00;92.30
81902;DHT22;71369;50.796;3.290;2023-08-31T01:28:59;14.00;92.30
81902;DHT22;71369;50.796;3.290;2023-08-31T01:31:24;13.90;92.20
81902;DHT22;71369;50.796;3.290;2023-08-31T01:33:50;13.80;92.50
81902;DHT22;71369;50.796;3.290;2023-08-31T01:36:29;13.80;92.30
81902;DHT22;71369;50.796;3.290;2023-08-31T01:39:15;13.80;92.40
81902;DHT22;71369;50.796;3.290;2023-08-31T01:41:51;13.80;92.30
81902;DHT22;71369;50.796;3.290;2023-08-31T01:44:21;13.70;92.40
81902;DHT22;71369;50.796;3.290;2023-08-31T01:46:51;13.60;92.60
81902;DHT22;71369;50.796;3.290;2023-08-31T01:49:17;13.50;93.00
81902;DHT22;71369;50.796;3.290;2023-08-31T01:51:44;13.50;92.60
81902;DHT22;71369;50.796;3.290;2023-08-31T01:54:10;13.40;92.60
81902;DHT22;71369;50.796;3.290;2023-08-31T01:56:35;13.40;92.60
81902;DHT22;71369;50.796;3.290;2023-08-31T01:59:01;13.40;92.60
81902;DHT22;71369;50.796;3.290;2023-08-31T02:01:27;13.30;92.70
81902;DHT22;71369;50.796;3.290;2023-08-31T02:03:57;13.30;92.80
81902;DHT22;71369;50.796;3.290;2023-08-31T02:06:27;13.30;92.70
81902;DHT22;71369;50.796;3.290;2023-08-31T02:08:53;13.20;92.80
81902;DHT22;71369;50.796;3.290;2023-08-31T02:11:19;13.20;92.80
81902;DHT22;71369;50.796;3.290;2023-08-31T02:13:44;13.20;92.90
81902;DHT22;71369;50.796;3.290;2023-08-31T02:16:10;13.10;93.10
81902;DHT22;71369;50.796;3.290;2023-08-31T02:18:36;13.20;93.30
81902;DHT22;71369;50.796;3.290;2023-08-31T02:21:01;13.20;93.30
81902;DHT22;71369;50.796;3.290;2023-08-31T02:23:29;13.20;93.30
81902;DHT22;71369;50.796;3.290;2023-08-31T02:25:54;13.30;93.40
81902;DHT22;71369;50.796;3.290;2023-08-31T02:28:20;13.30;93.40
81902;DHT22;71369;50.796;3.290;2023-08-31T02:30:46;13.40;93.20
81902;DHT22;71369;50.796;3.290;2023-08-31T02:33:25;13.40;93.10
81902;DHT22;71369;50.796;3.290;2023-08-31T02:35:50;13.40;93.00
81902;DHT22;71369;50.796;3.290;2023-08-31T02:38:16;13.40;93.00
81902;DHT22;71369;50.796;3.290;2023-08-31T02:40:41;13.50;93.00
81902;DHT22;71369;50.796;3.290;2023-08-31T02:43:07;13.40;93.00
81902;DHT22;71369;50.796;3.290;2023-08-31T02:45:33;13.40;93.00
81902;DHT22;71369;50.796;3.290;2023-08-31T02:48:00;13.30;93.30
81902;DHT22;71369;50.796;3.290;2023-08-31T02:50:29;13.30;93.10
81902;DHT22;71369;50.796;3.290;2023-08-31T02:52:56;13.30;93.00
81902;DHT22;71369;50.796;3.290;2023-08-31T02:55:22;13.30;93.10
81902;DHT22;71369;50.796;3.290;2023-08-31T02:57:48;13.30;92.90
81902;DHT22;71369;50.796;3.290;2023-08-31T03:00:14;13.30;92.80
81902;DHT22;71369;50.796;3.290;2023-08-31T03:02:40;13.10;93.00
81902;DHT22;71369;50.796;3.290;2023-08-31T03:05:09;13.10;93.10
81902;DHT22;71369;50.796;3.290;2023-08-31T03:07:34;13.10;93.00
81902;DHT22;71369;50.796;3.290;2023-08-31T03:10:05;13.10;93.10
81902;DHT22;71369;50.796;3.290;2023-08-31T03:12:30;13.10;93.20
81902;DHT22;71369;50.796;3.290;2023-08-31T03:14:56;13.10;93.10
81902;DHT22;71369;50.796;3.290;2023-08-31T03:17:26;13.10;93.00
81902;DHT22;71369;50.796;3.290;2023-08-31T03:19:54;13.00;93.00
81902;DHT22;71369;50.796;3.290;2023-08-31T03:22:21;12.90;93.20
81902;DHT22;71369;50.796;3.290;2023-08-31T03:24:46;12.90;93.30
81902;DHT22;71369;50.796;3.290;2023-08-31T03:27:12;12.90;93.20
81902;DHT22;71369;50.796;3.290;2023-08-31T03:29:38;12.90;93.20
81902;DHT22;71369;50.796;3.290;2023-08-31T03:32:07;12.90;93.10
81902;DHT22;71369;50.796;3.290;2023-08-31T03:34:33;12.90;92.90
81902;DHT22;71369;50.796;3.290;2023-08-31T03:36:59;12.80;93.20
81902;DHT22;71369;50.796;3.290;2023-08-31T03:39:25;12.70;93.20
81902;DHT22;71369;50.796;3.290;2023-08-31T03:41:51;12.70;93.50
81902;DHT22;71369;50.796;3.290;2023-08-31T03:44:17;12.70;93.00
81902;DHT22;71369;50.796;3.290;2023-08-31T03:46:43;12.60;93.10
81902;DHT22;71369;50.796;3.290;2023-08-31T03:49:09;12.60;93.00
81902;DHT22;71369;50.796;3.290;2023-08-31T03:51:35;12.50;93.20
81902;DHT22;71369;50.796;3.290;2023-08-31T03:54:00;12.50;93.40
81902;DHT22;71369;50.796;3.290;2023-08-31T03:56:26;12.40;93.30
81902;DHT22;71369;50.796;3.290;2023-08-31T03:58:52;12.40;93.40
81902;DHT22;71369;50.796;3.290;2023-08-31T04:01:18;12.40;93.30
81902;DHT22;71369;50.796;3.290;2023-08-31T04:03:44;12.50;93.20
81902;DHT22;71369;50.796;3.290;2023-08-31T04:06:10;12.40;93.20
81902;DHT22;71369;50.796;3.290;2023-08-31T04:08:35;12.30;93.40
81902;DHT22;71369;50.796;3.290;2023-08-31T04:11:01;12.30;93.40
81902;DHT22;71369;50.796;3.290;2023-08-31T04:13:27;12.30;93.40
81902;DHT22;71369;50.796;3.290;2023-08-31T04:15:55;12.30;93.30
81902;DHT22;71369;50.796;3.290;2023-08-31T04:18:23;12.40;93.30
81902;DHT22;71369;50.796;3.290;2023-08-31T04:20:51;12.40;93.00
81902;DHT22;71369;50.796;3.290;2023-08-31T04:23:18;12.30;92.90
81902;DHT22;71369;50.796;3.290;2023-08-31T04:25:44;12.30;92.90
81902;DHT22;71369;50.796;3.290;2023-08-31T04:28:10;12.20;92.90
81902;DHT22;71369;50.796;3.290;2023-08-31T04:30:35;12.20;92.90
81902;DHT22;71369;50.796;3.290;2023-08-31T04:33:01;12.20;93.20
81902;DHT22;71369;50.796;3.290;2023-08-31T04:35:27;12.20;93.20
81902;DHT22;71369;50.796;3.290;2023-08-31T04:37:52;12.20;93.00
81902;DHT22;71369;50.796;3.290;2023-08-31T04:40:18;12.10;93.10
81902;DHT22;71369;50.796;3.290;2023-08-31T04:42:44;12.20;93.10
81902;DHT22;71369;50.796;3.290;2023-08-31T04:45:10;12.00;93.20
81902;DHT22;71369;50.796;3.290;2023-08-31T04:47:37;12.10;93.10
81902;DHT22;71369;50.796;3.290;2023-08-31T04:50:03;12.10;93.00
81902;DHT22;71369;50.796;3.290;2023-08-31T04:52:32;12.00;93.00
81902;DHT22;71369;50.796;3.290;2023-08-31T04:54:58;12.00;93.00
81902;DHT22;71369;50.796;3.290;2023-08-31T04:57:26;11.90;93.10
81902;DHT22;71369;50.796;3.290;2023-08-31T04:59:56;11.90;93.20
81902;DHT22;71369;50.796;3.290;2023-08-31T05:02:22;11.90;93.20
81902;DHT22;71369;50.796;3.290;2023-08-31T05:04:48;11.90;93.40
81902;DHT22;71369;50.796;3.290;2023-08-31T05:07:13;11.90;93.20
81902;DHT22;71369;50.796;3.290;2023-08-31T05:09:39;11.90;93.10
81902;DHT22;71369;50.796;3.290;2023-08-31T05:12:05;11.90;93.00
81902;DHT22;71369;50.796;3.290;2023-08-31T05:14:31;11.90;93.00
81902;DHT22;71369;50.796;3.290;2023-08-31T05:16:56;11.90;93.00
81902;DHT22;71369;50.796;3.290;2023-08-31T05:19:22;12.00;93.10
81902;DHT22;71369;50.796;3.290;2023-08-31T05:21:48;12.00;93.00
81902;DHT22;71369;50.796;3.290;2023-08-31T05:24:13;12.00;92.90
81902;DHT22;71369;50.796;3.290;2023-08-31T05:26:39;12.00;93.00
81902;DHT22;71369;50.796;3.290;2023-08-31T05:29:08;11.90;93.30
81902;DHT22;71369;50.796;3.290;2023-08-31T05:31:36;11.90;93.80
81902;DHT22;71369;50.796;3.290;2023-08-31T05:34:04;11.90;93.90
81902;DHT22;71369;50.796;3.290;2023-08-31T05:36:29;11.90;94.00
81902;DHT22;71369;50.796;3.290;2023-08-31T05:38:55;12.00;94.00
81902;DHT22;71369;50.796;3.290;2023-08-31T05:41:23;12.10;94.00
81902;DHT22;71369;50.796;3.290;2023-08-31T05:43:49;12.10;94.10
81902;DHT22;71369;50.796;3.290;2023-08-31T05:46:14;12.20;94.10
81902;DHT22;71369;50.796;3.290;2023-08-31T05:48:40;12.30;94.10
81902;DHT22;71369;50.796;3.290;2023-08-31T05:51:06;12.30;94.10
81902;DHT22;71369;50.796;3.290;2023-08-31T05:53:31;12.50;94.20
81902;DHT22;71369;50.796;3.290;2023-08-31T05:55:58;12.60;94.20
81902;DHT22;71369;50.796;3.290;2023-08-31T05:58:34;12.70;94.10
81902;DHT22;71369;50.796;3.290;2023-08-31T06:01:01;12.80;94.10
81902;DHT22;71369;50.796;3.290;2023-08-31T06:03:28;13.00;94.20
81902;DHT22;71369;50.796;3.290;2023-08-31T06:05:55;13.20;93.80
81902;DHT22;71369;50.796;3.290;2023-08-31T06:08:21;13.30;93.40
81902;DHT22;71369;50.796;3.290;2023-08-31T06:10:47;13.60;93.50
81902;DHT22;71369;50.796;3.290;2023-08-31T06:13:13;13.70;93.40
81902;DHT22;71369;50.796;3.290;2023-08-31T06:15:39;14.00;93.60
81902;DHT22;71369;50.796;3.290;2023-08-31T06:18:06;14.50;93.80
81902;DHT22;71369;50.796;3.290;2023-08-31T06:20:32;14.90;93.40
81902;DHT22;71369;50.796;3.290;2023-08-31T06:22:59;15.10;92.10
81902;DHT22;71369;50.796;3.290;2023-08-31T06:25:24;15.00;91.90
81902;DHT22;71369;50.796;3.290;2023-08-31T06:27:50;15.00;91.20
81902;DHT22;71369;50.796;3.290;2023-08-31T06:30:17;15.00;91.50
81902;DHT22;71369;50.796;3.290;2023-08-31T06:32:47;15.20;91.10
81902;DHT22;71369;50.796;3.290;2023-08-31T06:35:13;15.30;91.10
81902;DHT22;71369;50.796;3.290;2023-08-31T06:37:41;15.60;90.70
81902;DHT22;71369;50.796;3.290;2023-08-31T06:40:08;15.90;90.30
81902;DHT22;71369;50.796;3.290;2023-08-31T06:42:35;16.10;87.60
81902;DHT22;71369;50.796;3.290;2023-08-31T06:45:01;16.30;87.80
81902;DHT22;71369;50.796;3.290;2023-08-31T06:47:27;16.40;86.50
81902;DHT22;71369;50.796;3.290;2023-08-31T06:49:53;16.50;85.00
81902;DHT22;71369;50.796;3.290;2023-08-31T06:52:18;16.60;84.80
81902;DHT22;71369;50.796;3.290;2023-08-31T06:54:44;16.80;84.30
81902;DHT22;71369;50.796;3.290;2023-08-31T06:57:10;17.10;84.50
81902;DHT22;71369;50.796;3.290;2023-08-31T06:59:36;17.60;82.10
81902;DHT22;71369;50.796;3.290;2023-08-31T07:02:02;18.10;80.70
81902;DHT22;71369;50.796;3.290;2023-08-31T07:04:28;18.30;81.30
81902;DHT22;71369;50.796;3.290;2023-08-31T07:06:54;18.80;79.30
81902;DHT22;71369;50.796;3.290;2023-08-31T07:09:20;19.30;77.10
81902;DHT22;71369;50.796;3.290;2023-08-31T07:11:45;19.60;72.40
81902;DHT22;71369;50.796;3.290;2023-08-31T07:14:11;19.80;72.40
81902;DHT22;71369;50.796;3.290;2023-08-31T07:16:37;19.80;71.80
81902;DHT22;71369;50.796;3.290;2023-08-31T07:19:02;19.80;71.00
81902;DHT22;71369;50.796;3.290;2023-08-31T07:21:28;19.30;70.20
81902;DHT22;71369;50.796;3.290;2023-08-31T07:23:55;18.80;73.40
81902;DHT22;71369;50.796;3.290;2023-08-31T07:26:21;18.70;74.70
81902;DHT22;71369;50.796;3.290;2023-08-31T07:28:47;18.60;74.70
81902;DHT22;71369;50.796;3.290;2023-08-31T07:31:13;18.80;75.00
81902;DHT22;71369;50.796;3.290;2023-08-31T07:33:39;19.10;74.00
81902;DHT22;71369;50.796;3.290;2023-08-31T07:36:05;19.70;73.50
81902;DHT22;71369;50.796;3.290;2023-08-31T07:38:32;20.20;70.00
81902;DHT22;71369;50.796;3.290;2023-08-31T07:40:58;20.50;68.80
81902;DHT22;71369;50.796;3.290;2023-08-31T07:43:28;20.70;67.70
81902;DHT22;71369;50.796;3.290;2023-08-31T07:45:55;20.70;66.20
81902;DHT22;71369;50.796;3.290;2023-08-31T07:48:21;20.30;67.90
81902;DHT22;71369;50.796;3.290;2023-08-31T07:50:47;20.00;69.70
81902;DHT22;71369;50.796;3.290;2023-08-31T07:53:14;20.20;69.30
81902;DHT22;71369;50.796;3.290;2023-08-31T07:55:41;20.30;68.60
81902;DHT22;71369;50.796;3.290;2023-08-31T07:58:07;20.80;68.50
81902;DHT22;71369;50.796;3.290;2023-08-31T08:00:32;21.30;66.20
81902;DHT22;71369;50.796;3.290;2023-08-31T08:02:58;21.10;65.90
81902;DHT22;71369;50.796;3.290;2023-08-31T08:05:24;20.80;67.00
81902;DHT22;71369;50.796;3.290;2023-08-31T08:07:50;20.80;68.80
81902;DHT22;71369;50.796;3.290;2023-08-31T08:10:15;21.60;66.50
81902;DHT22;71369;50.796;3.290;2023-08-31T08:12:43;22.60;62.40
81902;DHT22;71369;50.796;3.290;2023-08-31T08:15:10;22.90;60.20
81902;DHT22;71369;50.796;3.290;2023-08-31T08:17:36;23.10;60.80
81902;DHT22;71369;50.796;3.290;2023-08-31T08:20:02;23.30;59.00
81902;DHT22;71369;50.796;3.290;2023-08-31T08:22:29;23.30;59.10
81902;DHT22;71369;50.796;3.290;2023-08-31T08:24:57;23.20;59.10
81902;DHT22;71369;50.796;3.290;2023-08-31T08:27:22;23.30;59.30
81902;DHT22;71369;50.796;3.290;2023-08-31T08:29:48;23.40;58.70
81902;DHT22;71369;50.796;3.290;2023-08-31T08:32:14;23.80;58.30
81902;DHT22;71369;50.796;3.290;2023-08-31T08:34:40;24.50;57.00
81902;DHT22;71369;50.796;3.290;2023-08-31T08:37:06;25.30;54.30
81902;DHT22;71369;50.796;3.290;2023-08-31T08:39:31;25.40;52.90
81902;DHT22;71369;50.796;3.290;2023-08-31T08:42:04;25.50;52.50
81902;DHT22;71369;50.796;3.290;2023-08-31T08:44:33;26.10;52.40
81902;DHT22;71369;50.796;3.290;2023-08-31T08:47:01;26.80;49.10
81902;DHT22;71369;50.796;3.290;2023-08-31T08:49:27;26.50;49.50
81902;DHT22;71369;50.796;3.290;2023-08-31T08:51:56;26.40;48.80
81902;DHT22;71369;50.796;3.290;2023-08-31T08:54:25;26.80;50.00
81902;DHT22;71369;50.796;3.290;2023-08-31T08:56:51;27.40;48.80
81902;DHT22;71369;50.796;3.290;2023-08-31T08:59:16;28.30;46.00
81902;DHT22;71369;50.796;3.290;2023-08-31T09:01:42;28.60;46.50
81902;DHT22;71369;50.796;3.290;2023-08-31T09:04:11;28.20;45.30
81902;DHT22;71369;50.796;3.290;2023-08-31T09:06:38;28.40;44.40
81902;DHT22;71369;50.796;3.290;2023-08-31T09:09:04;28.20;43.90
81902;DHT22;71369;50.796;3.290;2023-08-31T09:11:30;27.20;46.20
81902;DHT22;71369;50.796;3.290;2023-08-31T09:13:57;26.70;48.00
81902;DHT22;71369;50.796;3.290;2023-08-31T09:16:28;26.80;48.20
81902;DHT22;71369;50.796;3.290;2023-08-31T09:18:58;26.70;48.80
81902;DHT22;71369;50.796;3.290;2023-08-31T09:21:37;26.00;50.00
81902;DHT22;71369;50.796;3.290;2023-08-31T09:24:05;25.50;49.50
81902;DHT22;71369;50.796;3.290;2023-08-31T09:26:54;25.10;50.60
81902;DHT22;71369;50.796;3.290;2023-08-31T09:29:21;25.10;52.10
81902;DHT22;71369;50.796;3.290;2023-08-31T09:31:57;26.30;49.60
81902;DHT22;71369;50.796;3.290;2023-08-31T09:34:33;27.40;46.70
81902;DHT22;71369;50.796;3.290;2023-08-31T09:37:04;27.70;45.80
81902;DHT22;71369;50.796;3.290;2023-08-31T09:39:36;27.50;44.60
81902;DHT22;71369;50.796;3.290;2023-08-31T09:42:02;26.70;46.30
81902;DHT22;71369;50.796;3.290;2023-08-31T09:44:29;26.50;47.40
81902;DHT22;71369;50.796;3.290;2023-08-31T09:46:54;26.00;48.50
81902;DHT22;71369;50.796;3.290;2023-08-31T09:49:25;25.80;48.80
81902;DHT22;71369;50.796;3.290;2023-08-31T09:51:51;25.40;50.10
81902;DHT22;71369;50.796;3.290;2023-08-31T09:54:18;24.90;50.80
81902;DHT22;71369;50.796;3.290;2023-08-31T09:56:46;24.70;51.40
81902;DHT22;71369;50.796;3.290;2023-08-31T09:59:14;24.10;52.10
81902;DHT22;71369;50.796;3.290;2023-08-31T10:01:40;24.00;53.20
81902;DHT22;71369;50.796;3.290;2023-08-31T10:04:07;24.20;51.80
81902;DHT22;71369;50.796;3.290;2023-08-31T10:06:39;24.00;52.30
81902;DHT22;71369;50.796;3.290;2023-08-31T10:09:05;24.10;52.70
81902;DHT22;71369;50.796;3.290;2023-08-31T10:11:31;24.40;52.20
81902;DHT22;71369;50.796;3.290;2023-08-31T10:13:58;24.70;52.80
81902;DHT22;71369;50.796;3.290;2023-08-31T10:16:25;25.00;50.40
81902;DHT22;71369;50.796;3.290;2023-08-31T10:18:54;25.10;49.00
81902;DHT22;71369;50.796;3.290;2023-08-31T10:21:20;25.40;49.50
81902;DHT22;71369;50.796;3.290;2023-08-31T10:23:51;25.40;48.60
81902;DHT22;71369;50.796;3.290;2023-08-31T10:26:27;24.70;52.40
81902;DHT22;71369;50.796;3.290;2023-08-31T10:28:54;24.10;51.00
81902;DHT22;71369;50.796;3.290;2023-08-31T10:31:21;24.00;51.90
81902;DHT22;71369;50.796;3.290;2023-08-31T10:34:04;23.40;53.20
81902;DHT22;71369;50.796;3.290;2023-08-31T10:36:39;23.10;54.80
81902;DHT22;71369;50.796;3.290;2023-08-31T10:39:18;23.30;54.40
81902;DHT22;71369;50.796;3.290;2023-08-31T10:41:53;24.00;53.50
81902;DHT22;71369;50.796;3.290;2023-08-31T10:44:20;24.10;52.90
81902;DHT22;71369;50.796;3.290;2023-08-31T10:46:46;24.20;51.60
81902;DHT22;71369;50.796;3.290;2023-08-31T10:49:16;24.20;51.80
81902;DHT22;71369;50.796;3.290;2023-08-31T10:51:53;23.90;53.50
81902;DHT22;71369;50.796;3.290;2023-08-31T10:54:23;23.90;52.50
81902;DHT22;71369;50.796;3.290;2023-08-31T10:59:44;24.20;51.90
81902;DHT22;71369;50.796;3.290;2023-08-31T11:02:10;24.60;49.30
81902;DHT22;71369;50.796;3.290;2023-08-31T11:12:42;25.90;46.30
81902;DHT22;71369;50.796;3.290;2023-08-31T11:15:11;27.20;43.70
81902;DHT22;71369;50.796;3.290;2023-08-31T11:17:37;27.50;42.20
81902;DHT22;71369;50.796;3.290;2023-08-31T11:20:15;27.10;42.10
81902;DHT22;71369;50.796;3.290;2023-08-31T11:22:43;26.90;42.00
81902;DHT22;71369;50.796;3.290;2023-08-31T11:25:11;26.60;44.60
81902;DHT22;71369;50.796;3.290;2023-08-31T11:27:36;26.70;44.20
81902;DHT22;71369;50.796;3.290;2023-08-31T11:30:04;26.70;43.40
81902;DHT22;71369;50.796;3.290;2023-08-31T11:32:36;26.40;43.10
81902;DHT22;71369;50.796;3.290;2023-08-31T11:35:02;26.50;42.60
81902;DHT22;71369;50.796;3.290;2023-08-31T11:37:29;25.90;43.10
81902;DHT22;71369;50.796;3.290;2023-08-31T11:39:55;25.30;44.10
81902;DHT22;71369;50.796;3.290;2023-08-31T11:42:21;24.80;45.20
81902;DHT22;71369;50.796;3.290;2023-08-31T11:44:48;24.20;44.20
81902;DHT22;71369;50.796;3.290;2023-08-31T11:47:15;23.40;47.40
81902;DHT22;71369;50.796;3.290;2023-08-31T11:49:45;22.90;48.70
81902;DHT22;71369;50.796;3.290;2023-08-31T11:52:12;22.70;49.80
81902;DHT22;71369;50.796;3.290;2023-08-31T11:54:39;22.50;50.60
81902;DHT22;71369;50.796;3.290;2023-08-31T11:57:10;22.70;51.40
81902;DHT22;71369;50.796;3.290;2023-08-31T11:59:37;23.20;51.10
81902;DHT22;71369;50.796;3.290;2023-08-31T12:02:07;23.60;51.20
81902;DHT22;71369;50.796;3.290;2023-08-31T12:04:45;24.20;50.30
81902;DHT22;71369;50.796;3.290;2023-08-31T12:07:15;24.70;46.40
81902;DHT22;71369;50.796;3.290;2023-08-31T12:09:41;24.50;46.40
81902;DHT22;71369;50.796;3.290;2023-08-31T12:12:13;24.50;45.50
81902;DHT22;71369;50.796;3.290;2023-08-31T12:14:39;24.40;46.10
81902;DHT22;71369;50.796;3.290;2023-08-31T12:17:07;24.10;47.30
81902;DHT22;71369;50.796;3.290;2023-08-31T12:19:36;23.80;48.60
81902;DHT22;71369;50.796;3.290;2023-08-31T12:22:05;23.60;49.20
81902;DHT22;71369;50.796;3.290;2023-08-31T12:24:39;22.90;50.50
81902;DHT22;71369;50.796;3.290;2023-08-31T12:27:08;22.70;50.70
81902;DHT22;71369;50.796;3.290;2023-08-31T12:29:35;22.70;51.30
81902;DHT22;71369;50.796;3.290;2023-08-31T12:32:01;22.70;51.40
81902;DHT22;71369;50.796;3.290;2023-08-31T12:34:28;22.40;51.10
81902;DHT22;71369;50.796;3.290;2023-08-31T12:36:54;22.00;52.90
81902;DHT22;71369;50.796;3.290;2023-08-31T12:39:22;21.80;54.70
81902;DHT22;71369;50.796;3.290;2023-08-31T12:41:48;21.70;54.60
81902;DHT22;71369;50.796;3.290;2023-08-31T12:44:15;21.50;55.60
81902;DHT22;71369;50.796;3.290;2023-08-31T12:46:40;21.30;57.20
81902;DHT22;71369;50.796;3.290;2023-08-31T12:49:06;21.00;57.60
81902;DHT22;71369;50.796;3.290;2023-08-31T12:51:32;20.80;58.70
81902;DHT22;71369;50.796;3.290;2023-08-31T12:53:58;20.60;60.10
81902;DHT22;71369;50.796;3.290;2023-08-31T12:56:23;20.50;59.80
81902;DHT22;71369;50.796;3.290;2023-08-31T12:58:50;20.20;60.00
81902;DHT22;71369;50.796;3.290;2023-08-31T13:01:16;20.00;61.50
81902;DHT22;71369;50.796;3.290;2023-08-31T13:03:42;20.00;62.40
81902;DHT22;71369;50.796;3.290;2023-08-31T13:06:08;20.00;62.70
81902;DHT22;71369;50.796;3.290;2023-08-31T13:08:36;20.00;62.40
81902;DHT22;71369;50.796;3.290;2023-08-31T13:11:01;20.30;62.20
81902;DHT22;71369;50.796;3.290;2023-08-31T13:13:29;20.70;61.70
81902;DHT22;71369;50.796;3.290;2023-08-31T13:15:55;21.20;61.10
81902;DHT22;71369;50.796;3.290;2023-08-31T13:18:20;21.60;58.90
81902;DHT22;71369;50.796;3.290;2023-08-31T13:20:55;22.00;58.30
81902;DHT22;71369;50.796;3.290;2023-08-31T13:23:24;22.10;56.80
81902;DHT22;71369;50.796;3.290;2023-08-31T13:25:50;22.00;56.00
81902;DHT22;71369;50.796;3.290;2023-08-31T13:28:16;21.60;55.50
81902;DHT22;71369;50.796;3.290;2023-08-31T13:30:42;21.40;58.00
81902;DHT22;71369;50.796;3.290;2023-08-31T13:33:08;21.20;58.70
81902;DHT22;71369;50.796;3.290;2023-08-31T13:35:34;21.20;59.60
81902;DHT22;71369;50.796;3.290;2023-08-31T13:38:01;21.30;59.70
81902;DHT22;71369;50.796;3.290;2023-08-31T13:40:27;21.40;59.50
81902;DHT22;71369;50.796;3.290;2023-08-31T13:42:57;21.30;58.60
81902;DHT22;71369;50.796;3.290;2023-08-31T13:45:27;21.30;58.10
81902;DHT22;71369;50.796;3.290;2023-08-31T13:47:53;21.20;58.80
81902;DHT22;71369;50.796;3.290;2023-08-31T13:50:19;21.30;57.60
81902;DHT22;71369;50.796;3.290;2023-08-31T13:52:45;21.50;58.90
81902;DHT22;71369;50.796;3.290;2023-08-31T13:55:11;21.60;57.30
81902;DHT22;71369;50.796;3.290;2023-08-31T13:57:40;21.60;54.90
81902;DHT22;71369;50.796;3.290;2023-08-31T14:00:07;21.60;56.10
81902;DHT22;71369;50.796;3.290;2023-08-31T14:02:35;21.70;56.20
81902;DHT22;71369;50.796;3.290;2023-08-31T14:05:02;22.00;54.70
81902;DHT22;71369;50.796;3.290;2023-08-31T14:07:27;22.00;53.80
81902;DHT22;71369;50.796;3.290;2023-08-31T14:09:53;22.00;54.90
81902;DHT22;71369;50.796;3.290;2023-08-31T14:12:19;22.10;55.60
81902;DHT22;71369;50.796;3.290;2023-08-31T14:14:45;22.30;54.00
81902;DHT22;71369;50.796;3.290;2023-08-31T14:17:12;22.10;54.40
81902;DHT22;71369;50.796;3.290;2023-08-31T14:19:38;21.90;55.00
81902;DHT22;71369;50.796;3.290;2023-08-31T14:22:05;21.80;55.40
81902;DHT22;71369;50.796;3.290;2023-08-31T14:24:30;21.80;55.30
81902;DHT22;71369;50.796;3.290;2023-08-31T14:26:56;21.80;54.80
81902;DHT22;71369;50.796;3.290;2023-08-31T14:29:23;21.60;55.30
81902;DHT22;71369;50.796;3.290;2023-08-31T14:31:48;21.50;56.40
81902;DHT22;71369;50.796;3.290;2023-08-31T14:34:14;21.50;58.10
81902;DHT22;71369;50.796;3.290;2023-08-31T14:36:40;21.60;58.40
81902;DHT22;71369;50.796;3.290;2023-08-31T14:39:05;21.60;57.60
81902;DHT22;71369;50.796;3.290;2023-08-31T14:41:31;21.50;56.30
81902;DHT22;71369;50.796;3.290;2023-08-31T14:43:57;21.40;57.50
81902;DHT22;71369;50.796;3.290;2023-08-31T14:46:22;21.40;57.50
81902;DHT22;71369;50.796;3.290;2023-08-31T14:48:50;21.30;58.30
81902;DHT22;71369;50.796;3.290;2023-08-31T14:51:16;21.10;58.60
81902;DHT22;71369;50.796;3.290;2023-08-31T14:53:42;20.90;59.10
81902;DHT22;71369;50.796;3.290;2023-08-31T14:56:08;20.80;60.70
81902;DHT22;71369;50.796;3.290;2023-08-31T14:58:34;20.70;60.40
81902;DHT22;71369;50.796;3.290;2023-08-31T15:01:00;20.40;61.70
81902;DHT22;71369;50.796;3.290;2023-08-31T15:03:26;20.30;62.70
81902;DHT22;71369;50.796;3.290;2023-08-31T15:05:52;20.00;65.40
81902;DHT22;71369;50.796;3.290;2023-08-31T15:08:22;19.80;68.30
81902;DHT22;71369;50.796;3.290;2023-08-31T15:10:47;19.50;67.40
81902;DHT22;71369;50.796;3.290;2023-08-31T15:13:13;19.40;66.80
81902;DHT22;71369;50.796;3.290;2023-08-31T15:15:39;19.30;65.90
81902;DHT22;71369;50.796;3.290;2023-08-31T15:18:05;19.10;68.30
81902;DHT22;71369;50.796;3.290;2023-08-31T15:20:30;19.10;68.80
81902;DHT22;71369;50.796;3.290;2023-08-31T15:22:58;18.90;70.50
81902;DHT22;71369;50.796;3.290;2023-08-31T15:25:24;18.70;72.50
81902;DHT22;71369;50.796;3.290;2023-08-31T15:27:50;18.80;73.90
81902;DHT22;71369;50.796;3.290;2023-08-31T15:30:15;18.90;72.10
81902;DHT22;71369;50.796;3.290;2023-08-31T15:32:41;18.70;71.20
81902;DHT22;71369;50.796;3.290;2023-08-31T15:35:07;18.60;69.90
81902;DHT22;71369;50.796;3.290;2023-08-31T15:37:33;18.80;69.70
81902;DHT22;71369;50.796;3.290;2023-08-31T15:39:58;18.80;70.40
81902;DHT22;71369;50.796;3.290;2023-08-31T15:42:27;18.80;69.90
81902;DHT22;71369;50.796;3.290;2023-08-31T15:44:54;18.80;69.50